HRHO2: North Canadian River

                                SHEF ID:       HRHO2     North Canadian River near Harrah
STATION TYPE:
Regulating: Stage = 15.00, Flow = 8563

STAGE RIV-FLOW WTR-TEMP DIS-OXY PH CONDUCT BAT-LOAD
ft cfs F mg/l su umho/cm volt
Ccp-Rev Ccp-Rev Ccp-Rev Ccp-Rev Ccp-Rev Ccp-Rev Ccp-Rev
(America/Chicago)
05/02 00:00 3.23 122 66.11 7.23 7.98 877 12.05
05/02 01:00 3.22 120 65.07 7.30 7.91 879 12.05
05/02 02:00 3.21 118 64.09 7.04 7.86 880 12.05
05/02 03:00 3.21 118 63.25 7.29 7.81 881 12.04
05/02 04:00 3.23 122 62.74 7.20 7.79 882 12.04
05/02 05:00 3.25 125 62.44 7.26 7.75 885 12.02
05/02 06:00 3.26 127 62.10 7.02 7.73 889 11.99
05/02 07:00 3.27 129 61.75 7.40 7.71 891 11.97
05/02 08:00 3.28 131 61.95 7.68 7.74 892 11.98
05/02 09:00 3.28 131 63.05 8.34 7.79 894 12.13
05/02 10:00 3.28 131 63.63 8.64 7.86 894 12.51
05/02 11:00 3.28 131 64.83 9.13 7.95 893 12.77
05/02 12:00 3.28 131 68.04 9.40 8.05 891 13.11
05/02 13:00 3.28 131 71.29 9.72 8.09 890 12.98
05/02 14:00 3.28 131 74.19 9.73 8.14 891 13.00
05/02 15:00 3.28 131 76.57 10.00 8.19 892 13.03
05/02 16:00 3.28 131 77.99 9.41 8.22 896 12.94
05/02 17:00 3.28 131 78.26 9.82 8.25 889 12.85
05/02 18:00 3.27 129 77.65 9.23 8.28 886 12.76
05/02 19:00 3.27 129 76.26 9.31 8.29 881 12.66
05/02 20:00 3.26 127 74.55 8.44 8.27 877 12.54
05/02 21:00 3.25 125 72.82 8.19 8.20 875 12.33
05/02 22:00 3.24 123 71.13 7.55 8.12 874 12.17
05/02 23:00 3.24 123 70.38 7.48 8.06 874 12.07
Data processed at Sun 03May2026 04:25 GMT

NOTICE: If you are parsing this page

Please convert to using our Data API. Starting early 2026 we will be migrating to: https://water.usace.army.mil with modern pages rendered in JavaScript. When this migration completes you will no longer be able to scrape this page! CWMSDataAPI (CDA)

Timeseries IDs (TSIDs)

TSIDs used from left to right in the data table
HARR.Stage.Inst.1Hour.0.Ccp-Rev
HARR.Flow.Inst.1Hour.0.Ccp-Rev
HARR.Temp-Water.Inst.1Hour.0.Ccp-Rev
HARR.Conc-DO.Inst.1Hour.0.Ccp-Rev
HARR.pH.Inst.1Hour.0.Ccp-Rev
HARR.Cond-Water.Inst.1Hour.0.Ccp-Rev
HARR.Volt-Battery Load.Inst.1Hour.0.Ccp-Rev

                            

All information presented herein is the property of the government of the United States of America and may be revised or deleted at any time without prior notice. Dissemination of this information without the expressed written consent of the Public Affairs Office, Tulsa District U.S. Army Corps of Engineers is strictly prohibited. These data are gathered electronically and, as presented, have NOT undergone any form of quality control. These data are NOT guaranteed to be valid or correct.